sensor_id;sensor_type;location;lat;lon;timestamp;pressure;altitude;pressure_sealevel;temperature;humidity
55755;BME280;41674;52.290;-1.474;2024-02-14T00:02:01;100248.88;;;8.55;100.00
55755;BME280;41674;52.290;-1.474;2024-02-14T00:04:30;100244.38;;;8.72;100.00
55755;BME280;41674;52.290;-1.474;2024-02-14T00:07:05;100241.27;;;8.21;100.00
55755;BME280;41674;52.290;-1.474;2024-02-14T00:09:30;100244.28;;;8.27;100.00
55755;BME280;41674;52.290;-1.474;2024-02-14T00:12:00;100250.23;;;8.26;100.00
55755;BME280;41674;52.290;-1.474;2024-02-14T00:14:30;100245.01;;;8.22;100.00
55755;BME280;41674;52.290;-1.474;2024-02-14T00:17:00;100246.67;;;8.44;100.00
55755;BME280;41674;52.290;-1.474;2024-02-14T00:19:28;100246.90;;;9.07;100.00
55755;BME280;41674;52.290;-1.474;2024-02-14T00:21:58;100246.50;;;8.71;100.00
55755;BME280;41674;52.290;-1.474;2024-02-14T00:24:27;100251.93;;;8.65;100.00
55755;BME280;41674;52.290;-1.474;2024-02-14T00:27:00;100251.78;;;8.54;100.00
55755;BME280;41674;52.290;-1.474;2024-02-14T00:29:26;100250.76;;;9.02;100.00
55755;BME280;41674;52.290;-1.474;2024-02-14T00:31:56;100249.46;;;9.10;100.00
55755;BME280;41674;52.290;-1.474;2024-02-14T00:34:26;100251.76;;;8.77;100.00
55755;BME280;41674;52.290;-1.474;2024-02-14T00:36:55;100250.55;;;8.71;100.00
55755;BME280;41674;52.290;-1.474;2024-02-14T00:39:33;100256.64;;;8.77;100.00
55755;BME280;41674;52.290;-1.474;2024-02-14T00:41:54;100260.58;;;8.58;100.00
55755;BME280;41674;52.290;-1.474;2024-02-14T00:44:23;100259.71;;;8.43;100.00
55755;BME280;41674;52.290;-1.474;2024-02-14T00:47:01;100260.26;;;8.51;100.00
55755;BME280;41674;52.290;-1.474;2024-02-14T00:49:23;100259.61;;;8.66;100.00
55755;BME280;41674;52.290;-1.474;2024-02-14T00:51:52;100257.33;;;9.64;100.00
55755;BME280;41674;52.290;-1.474;2024-02-14T00:54:22;100255.07;;;8.84;100.00
55755;BME280;41674;52.290;-1.474;2024-02-14T00:56:59;100259.55;;;9.25;100.00
55755;BME280;41674;52.290;-1.474;2024-02-14T00:59:22;100251.76;;;9.09;100.00
55755;BME280;41674;52.290;-1.474;2024-02-14T01:01:51;100263.49;;;9.07;100.00
55755;BME280;41674;52.290;-1.474;2024-02-14T01:04:20;100263.88;;;8.84;100.00
55755;BME280;41674;52.290;-1.474;2024-02-14T01:06:50;100264.01;;;8.47;100.00
55755;BME280;41674;52.290;-1.474;2024-02-14T01:09:19;100265.63;;;8.77;100.00
55755;BME280;41674;52.290;-1.474;2024-02-14T01:11:49;100272.16;;;8.17;100.00
55755;BME280;41674;52.290;-1.474;2024-02-14T01:14:20;100267.90;;;8.66;100.00
55755;BME280;41674;52.290;-1.474;2024-02-14T01:16:58;100277.85;;;8.89;100.00
55755;BME280;41674;52.290;-1.474;2024-02-14T01:19:19;100272.74;;;8.46;100.00
55755;BME280;41674;52.290;-1.474;2024-02-14T01:21:53;100271.56;;;8.54;100.00
55755;BME280;41674;52.290;-1.474;2024-02-14T01:24:17;100276.58;;;8.68;100.00
55755;BME280;41674;52.290;-1.474;2024-02-14T01:26:46;100275.42;;;9.46;100.00
55755;BME280;41674;52.290;-1.474;2024-02-14T01:29:17;100268.90;;;9.63;100.00
55755;BME280;41674;52.290;-1.474;2024-02-14T01:31:45;100270.84;;;8.87;100.00
55755;BME280;41674;52.290;-1.474;2024-02-14T01:34:20;100266.39;;;9.01;100.00
55755;BME280;41674;52.290;-1.474;2024-02-14T01:36:50;100267.49;;;9.21;100.00
55755;BME280;41674;52.290;-1.474;2024-02-14T01:39:15;100259.57;;;9.69;100.00
55755;BME280;41674;52.290;-1.474;2024-02-14T01:41:50;100258.38;;;9.08;100.00
55755;BME280;41674;52.290;-1.474;2024-02-14T01:44:14;100255.02;;;9.64;100.00
55755;BME280;41674;52.290;-1.474;2024-02-14T01:46:43;100265.29;;;9.23;100.00
55755;BME280;41674;52.290;-1.474;2024-02-14T01:49:15;100265.95;;;10.18;100.00
55755;BME280;41674;52.290;-1.474;2024-02-14T01:51:43;100271.13;;;10.08;100.00
55755;BME280;41674;52.290;-1.474;2024-02-14T01:54:12;100273.39;;;10.26;100.00
55755;BME280;41674;52.290;-1.474;2024-02-14T01:56:42;100271.44;;;10.22;100.00
55755;BME280;41674;52.290;-1.474;2024-02-14T01:59:13;100270.63;;;10.86;100.00
55755;BME280;41674;52.290;-1.474;2024-02-14T02:01:40;100270.47;;;11.25;100.00
55755;BME280;41674;52.290;-1.474;2024-02-14T02:04:10;100263.92;;;11.41;100.00
55755;BME280;41674;52.290;-1.474;2024-02-14T02:06:46;100262.22;;;11.74;100.00
55755;BME280;41674;52.290;-1.474;2024-02-14T02:09:09;100262.91;;;11.57;100.00
55755;BME280;41674;52.290;-1.474;2024-02-14T02:11:46;100262.58;;;11.39;100.00
55755;BME280;41674;52.290;-1.474;2024-02-14T02:14:08;100267.78;;;10.96;100.00
55755;BME280;41674;52.290;-1.474;2024-02-14T02:16:38;100265.67;;;11.50;100.00
55755;BME280;41674;52.290;-1.474;2024-02-14T02:19:07;100263.80;;;10.07;100.00
55755;BME280;41674;52.290;-1.474;2024-02-14T02:21:42;100257.08;;;10.62;100.00
55755;BME280;41674;52.290;-1.474;2024-02-14T02:24:07;100258.83;;;10.67;100.00
55755;BME280;41674;52.290;-1.474;2024-02-14T02:26:37;100266.28;;;9.89;100.00
55755;BME280;41674;52.290;-1.474;2024-02-14T02:29:08;100267.85;;;10.16;100.00
55755;BME280;41674;52.290;-1.474;2024-02-14T02:31:41;100269.06;;;9.95;100.00
55755;BME280;41674;52.290;-1.474;2024-02-14T02:34:05;100269.86;;;9.51;100.00
55755;BME280;41674;52.290;-1.474;2024-02-14T02:36:34;100270.84;;;9.61;100.00
55755;BME280;41674;52.290;-1.474;2024-02-14T02:39:06;100268.99;;;10.13;100.00
55755;BME280;41674;52.290;-1.474;2024-02-14T02:41:35;100275.07;;;10.04;100.00
55755;BME280;41674;52.290;-1.474;2024-02-14T02:44:03;100275.94;;;9.44;100.00
55755;BME280;41674;52.290;-1.474;2024-02-14T02:46:33;100277.00;;;9.95;100.00
55755;BME280;41674;52.290;-1.474;2024-02-14T02:49:02;100272.04;;;9.21;100.00
55755;BME280;41674;52.290;-1.474;2024-02-14T02:51:32;100270.00;;;9.70;100.00
55755;BME280;41674;52.290;-1.474;2024-02-14T02:54:03;100265.88;;;10.12;100.00
55755;BME280;41674;52.290;-1.474;2024-02-14T02:56:31;100263.52;;;10.07;100.00
55755;BME280;41674;52.290;-1.474;2024-02-14T02:59:00;100250.20;;;10.81;100.00
55755;BME280;41674;52.290;-1.474;2024-02-14T03:01:40;100253.95;;;10.00;100.00
55755;BME280;41674;52.290;-1.474;2024-02-14T03:04:00;100256.36;;;9.76;100.00
55755;BME280;41674;52.290;-1.474;2024-02-14T03:06:31;100259.62;;;10.02;100.00
55755;BME280;41674;52.290;-1.474;2024-02-14T03:08:59;100259.05;;;10.36;100.00
55755;BME280;41674;52.290;-1.474;2024-02-14T03:11:28;100255.90;;;9.57;100.00
55755;BME280;41674;52.290;-1.474;2024-02-14T03:13:58;100255.46;;;9.17;100.00
55755;BME280;41674;52.290;-1.474;2024-02-14T03:16:27;100251.29;;;9.39;100.00
55755;BME280;41674;52.290;-1.474;2024-02-14T03:18:57;100249.53;;;9.50;100.00
55755;BME280;41674;52.290;-1.474;2024-02-14T03:21:27;100255.42;;;9.20;100.00
55755;BME280;41674;52.290;-1.474;2024-02-14T03:23:57;100257.87;;;9.17;100.00
55755;BME280;41674;52.290;-1.474;2024-02-14T03:26:26;100246.68;;;9.17;100.00
55755;BME280;41674;52.290;-1.474;2024-02-14T03:28:56;100242.23;;;9.25;100.00
55755;BME280;41674;52.290;-1.474;2024-02-14T03:31:25;100246.16;;;8.78;100.00
55755;BME280;41674;52.290;-1.474;2024-02-14T03:33:55;100241.12;;;9.01;100.00
55755;BME280;41674;52.290;-1.474;2024-02-14T03:36:26;100241.49;;;9.20;100.00
55755;BME280;41674;52.290;-1.474;2024-02-14T03:38:55;100245.06;;;9.18;100.00
55755;BME280;41674;52.290;-1.474;2024-02-14T03:41:23;100243.82;;;9.41;100.00
55755;BME280;41674;52.290;-1.474;2024-02-14T03:43:53;100249.91;;;9.25;100.00
55755;BME280;41674;52.290;-1.474;2024-02-14T03:46:22;100250.30;;;9.20;100.00
55755;BME280;41674;52.290;-1.474;2024-02-14T03:48:52;100252.57;;;9.83;100.00
55755;BME280;41674;52.290;-1.474;2024-02-14T03:51:23;100253.49;;;9.60;100.00
55755;BME280;41674;52.290;-1.474;2024-02-14T03:53:52;100239.27;;;9.84;100.00
55755;BME280;41674;52.290;-1.474;2024-02-14T03:56:22;100244.93;;;9.90;100.00
55755;BME280;41674;52.290;-1.474;2024-02-14T03:58:51;100234.73;;;10.07;100.00
55755;BME280;41674;52.290;-1.474;2024-02-14T04:01:20;100237.82;;;10.32;100.00
55755;BME280;41674;52.290;-1.474;2024-02-14T04:03:51;100242.34;;;10.33;100.00
55755;BME280;41674;52.290;-1.474;2024-02-14T04:06:19;100242.01;;;9.25;100.00
55755;BME280;41674;52.290;-1.474;2024-02-14T04:08:51;100239.24;;;9.81;100.00
55755;BME280;41674;52.290;-1.474;2024-02-14T04:11:18;100233.11;;;9.99;100.00
55755;BME280;41674;52.290;-1.474;2024-02-14T04:13:55;100236.69;;;9.59;100.00
55755;BME280;41674;52.290;-1.474;2024-02-14T04:16:22;100235.38;;;9.02;100.00
55755;BME280;41674;52.290;-1.474;2024-02-14T04:18:47;100225.01;;;10.57;100.00
55755;BME280;41674;52.290;-1.474;2024-02-14T04:21:16;100228.21;;;10.01;100.00
55755;BME280;41674;52.290;-1.474;2024-02-14T04:23:55;100226.09;;;9.30;100.00
55755;BME280;41674;52.290;-1.474;2024-02-14T04:26:29;100225.10;;;9.80;100.00
55755;BME280;41674;52.290;-1.474;2024-02-14T04:29:02;100222.19;;;10.14;100.00
55755;BME280;41674;52.290;-1.474;2024-02-14T04:31:26;100228.26;;;11.19;100.00
55755;BME280;41674;52.290;-1.474;2024-02-14T04:33:56;100228.32;;;9.59;100.00
55755;BME280;41674;52.290;-1.474;2024-02-14T04:36:29;100228.48;;;10.54;100.00
55755;BME280;41674;52.290;-1.474;2024-02-14T04:38:52;100238.43;;;10.43;100.00
55755;BME280;41674;52.290;-1.474;2024-02-14T04:41:26;100243.82;;;10.73;100.00
55755;BME280;41674;52.290;-1.474;2024-02-14T04:43:56;100238.72;;;11.70;100.00
55755;BME280;41674;52.290;-1.474;2024-02-14T04:46:30;100236.87;;;11.26;100.00
55755;BME280;41674;52.290;-1.474;2024-02-14T04:48:56;100244.35;;;10.89;100.00
55755;BME280;41674;52.290;-1.474;2024-02-14T04:51:29;100243.37;;;11.08;100.00
55755;BME280;41674;52.290;-1.474;2024-02-14T04:53:59;100242.48;;;11.00;100.00
55755;BME280;41674;52.290;-1.474;2024-02-14T04:56:34;100242.68;;;11.49;100.00
55755;BME280;41674;52.290;-1.474;2024-02-14T04:58:59;100250.53;;;10.60;100.00
55755;BME280;41674;52.290;-1.474;2024-02-14T05:01:36;100243.29;;;11.35;100.00
55755;BME280;41674;52.290;-1.474;2024-02-14T05:03:58;100253.30;;;10.80;100.00
55755;BME280;41674;52.290;-1.474;2024-02-14T05:08:59;100264.98;;;10.57;100.00
55755;BME280;41674;52.290;-1.474;2024-02-14T05:11:27;100269.02;;;11.22;100.00
55755;BME280;41674;52.290;-1.474;2024-02-14T05:13:59;100255.11;;;11.48;100.00
55755;BME280;41674;52.290;-1.474;2024-02-14T05:16:25;100249.51;;;11.79;98.70
55755;BME280;41674;52.290;-1.474;2024-02-14T05:19:03;100257.21;;;11.21;100.00
55755;BME280;41674;52.290;-1.474;2024-02-14T05:21:26;100259.84;;;11.16;100.00
55755;BME280;41674;52.290;-1.474;2024-02-14T05:23:57;100273.37;;;10.78;100.00
55755;BME280;41674;52.290;-1.474;2024-02-14T05:26:37;100270.60;;;11.11;100.00
55755;BME280;41674;52.290;-1.474;2024-02-14T05:28:56;100274.41;;;10.91;100.00
55755;BME280;41674;52.290;-1.474;2024-02-14T05:34:01;100272.41;;;11.28;100.00
55755;BME280;41674;52.290;-1.474;2024-02-14T05:36:33;100275.57;;;11.23;100.00
55755;BME280;41674;52.290;-1.474;2024-02-14T05:39:01;100277.35;;;10.69;100.00
55755;BME280;41674;52.290;-1.474;2024-02-14T05:41:30;100278.35;;;10.99;100.00
55755;BME280;41674;52.290;-1.474;2024-02-14T05:44:08;100280.12;;;10.65;100.00
55755;BME280;41674;52.290;-1.474;2024-02-14T05:46:35;100271.06;;;12.55;96.06
55755;BME280;41674;52.290;-1.474;2024-02-14T05:49:02;100270.75;;;11.55;97.41
55755;BME280;41674;52.290;-1.474;2024-02-14T05:51:33;100271.96;;;12.40;95.47
55755;BME280;41674;52.290;-1.474;2024-02-14T05:54:05;100268.26;;;11.15;98.74
55755;BME280;41674;52.290;-1.474;2024-02-14T05:56:28;100268.65;;;11.45;100.00
55755;BME280;41674;52.290;-1.474;2024-02-14T05:58:55;100271.98;;;11.51;100.00
55755;BME280;41674;52.290;-1.474;2024-02-14T06:01:25;100272.54;;;10.22;100.00
55755;BME280;41674;52.290;-1.474;2024-02-14T06:03:55;100272.36;;;10.02;100.00
55755;BME280;41674;52.290;-1.474;2024-02-14T06:06:24;100270.37;;;10.01;100.00
55755;BME280;41674;52.290;-1.474;2024-02-14T06:08:55;100273.46;;;10.46;100.00
55755;BME280;41674;52.290;-1.474;2024-02-14T06:11:23;100268.57;;;10.60;100.00
55755;BME280;41674;52.290;-1.474;2024-02-14T06:13:53;100273.37;;;10.68;100.00
55755;BME280;41674;52.290;-1.474;2024-02-14T06:16:27;100272.35;;;10.91;100.00
55755;BME280;41674;52.290;-1.474;2024-02-14T06:18:52;100268.69;;;10.90;100.00
55755;BME280;41674;52.290;-1.474;2024-02-14T06:21:21;100270.47;;;10.45;100.00
55755;BME280;41674;52.290;-1.474;2024-02-14T06:23:51;100277.56;;;9.63;100.00
55755;BME280;41674;52.290;-1.474;2024-02-14T06:26:21;100274.62;;;10.29;100.00
55755;BME280;41674;52.290;-1.474;2024-02-14T06:28:50;100279.77;;;10.23;100.00
55755;BME280;41674;52.290;-1.474;2024-02-14T06:31:22;100289.99;;;10.41;100.00
55755;BME280;41674;52.290;-1.474;2024-02-14T06:33:50;100292.77;;;10.29;100.00
55755;BME280;41674;52.290;-1.474;2024-02-14T06:36:19;100292.11;;;10.79;100.00
55755;BME280;41674;52.290;-1.474;2024-02-14T06:38:50;100290.56;;;10.26;100.00
55755;BME280;41674;52.290;-1.474;2024-02-14T06:41:26;100297.27;;;10.70;100.00
55755;BME280;41674;52.290;-1.474;2024-02-14T06:43:48;100294.82;;;10.23;100.00
55755;BME280;41674;52.290;-1.474;2024-02-14T06:46:17;100293.55;;;10.63;100.00
55755;BME280;41674;52.290;-1.474;2024-02-14T06:49:00;100292.81;;;9.99;100.00
55755;BME280;41674;52.290;-1.474;2024-02-14T06:51:33;100299.65;;;10.28;100.00
55755;BME280;41674;52.290;-1.474;2024-02-14T06:53:58;100301.82;;;10.22;100.00
55755;BME280;41674;52.290;-1.474;2024-02-14T06:56:24;100295.20;;;10.86;100.00
55755;BME280;41674;52.290;-1.474;2024-02-14T06:59:06;100296.27;;;11.28;100.00
55755;BME280;41674;52.290;-1.474;2024-02-14T07:01:34;100296.01;;;11.59;100.00
55755;BME280;41674;52.290;-1.474;2024-02-14T07:04:01;100297.43;;;12.11;100.00
55755;BME280;41674;52.290;-1.474;2024-02-14T07:06:26;100302.29;;;12.47;99.09
55755;BME280;41674;52.290;-1.474;2024-02-14T07:08:58;100302.56;;;11.17;100.00
55755;BME280;41674;52.290;-1.474;2024-02-14T07:11:26;100295.01;;;11.99;100.00
55755;BME280;41674;52.290;-1.474;2024-02-14T07:14:01;100307.18;;;10.97;100.00
55755;BME280;41674;52.290;-1.474;2024-02-14T07:19:07;100300.64;;;12.39;100.00
55755;BME280;41674;52.290;-1.474;2024-02-14T07:21:29;100300.03;;;11.78;100.00
55755;BME280;41674;52.290;-1.474;2024-02-14T07:23:53;100296.14;;;12.21;98.75
55755;BME280;41674;52.290;-1.474;2024-02-14T07:26:39;100294.99;;;11.80;99.74
55755;BME280;41674;52.290;-1.474;2024-02-14T07:29:02;100300.61;;;11.81;100.00
55755;BME280;41674;52.290;-1.474;2024-02-14T07:31:37;100298.00;;;11.86;100.00
55755;BME280;41674;52.290;-1.474;2024-02-14T07:34:04;100302.05;;;12.00;99.65
55755;BME280;41674;52.290;-1.474;2024-02-14T07:36:31;100313.64;;;11.84;100.00
55755;BME280;41674;52.290;-1.474;2024-02-14T07:39:07;100324.25;;;11.18;100.00
55755;BME280;41674;52.290;-1.474;2024-02-14T07:41:34;100318.71;;;10.76;100.00
55755;BME280;41674;52.290;-1.474;2024-02-14T07:44:08;100313.29;;;10.34;100.00
55755;BME280;41674;52.290;-1.474;2024-02-14T07:46:34;100311.21;;;10.30;100.00
55755;BME280;41674;52.290;-1.474;2024-02-14T07:49:07;100314.48;;;11.18;100.00
55755;BME280;41674;52.290;-1.474;2024-02-14T07:51:41;100317.33;;;10.71;100.00
55755;BME280;41674;52.290;-1.474;2024-02-14T07:56:33;100315.74;;;10.79;100.00
55755;BME280;41674;52.290;-1.474;2024-02-14T07:59:09;100318.39;;;10.96;100.00
55755;BME280;41674;52.290;-1.474;2024-02-14T08:01:39;100319.25;;;11.41;100.00
55755;BME280;41674;52.290;-1.474;2024-02-14T08:04:12;100323.64;;;11.15;100.00
55755;BME280;41674;52.290;-1.474;2024-02-14T08:06:39;100319.66;;;12.11;100.00
55755;BME280;41674;52.290;-1.474;2024-02-14T08:09:06;100319.19;;;11.24;100.00
55755;BME280;41674;52.290;-1.474;2024-02-14T08:11:39;100316.63;;;10.92;100.00
55755;BME280;41674;52.290;-1.474;2024-02-14T08:14:01;100310.73;;;11.09;100.00
55755;BME280;41674;52.290;-1.474;2024-02-14T08:16:37;100298.16;;;12.13;100.00
55755;BME280;41674;52.290;-1.474;2024-02-14T08:19:11;100309.89;;;13.17;95.33
55755;BME280;41674;52.290;-1.474;2024-02-14T08:21:47;100312.96;;;12.40;99.31
55755;BME280;41674;52.290;-1.474;2024-02-14T08:24:12;100322.62;;;10.91;100.00
55755;BME280;41674;52.290;-1.474;2024-02-14T08:26:50;100324.51;;;10.97;100.00
55755;BME280;41674;52.290;-1.474;2024-02-14T08:29:25;100323.48;;;10.75;100.00
55755;BME280;41674;52.290;-1.474;2024-02-14T08:31:45;100331.95;;;11.88;100.00
55755;BME280;41674;52.290;-1.474;2024-02-14T08:34:07;100328.90;;;11.78;100.00
55755;BME280;41674;52.290;-1.474;2024-02-14T08:36:33;100326.62;;;11.75;100.00
55755;BME280;41674;52.290;-1.474;2024-02-14T08:39:21;100327.08;;;11.33;100.00
55755;BME280;41674;52.290;-1.474;2024-02-14T08:41:38;100333.85;;;10.94;100.00
55755;BME280;41674;52.290;-1.474;2024-02-14T08:44:15;100337.29;;;11.66;100.00
55755;BME280;41674;52.290;-1.474;2024-02-14T08:46:44;100337.72;;;12.08;100.00
55755;BME280;41674;52.290;-1.474;2024-02-14T08:49:12;100342.27;;;10.85;100.00
55755;BME280;41674;52.290;-1.474;2024-02-14T08:51:41;100340.43;;;11.02;100.00
55755;BME280;41674;52.290;-1.474;2024-02-14T08:54:08;100335.43;;;11.74;100.00
55755;BME280;41674;52.290;-1.474;2024-02-14T08:56:45;100324.24;;;11.60;100.00
55755;BME280;41674;52.290;-1.474;2024-02-14T08:59:16;100334.96;;;11.55;100.00
55755;BME280;41674;52.290;-1.474;2024-02-14T09:01:44;100337.37;;;11.30;100.00
55755;BME280;41674;52.290;-1.474;2024-02-14T09:04:15;100336.27;;;11.67;100.00
55755;BME280;41674;52.290;-1.474;2024-02-14T09:06:42;100335.03;;;11.52;100.00
55755;BME280;41674;52.290;-1.474;2024-02-14T09:09:16;100332.93;;;12.06;100.00
55755;BME280;41674;52.290;-1.474;2024-02-14T09:11:45;100331.07;;;12.52;100.00
55755;BME280;41674;52.290;-1.474;2024-02-14T09:14:08;100348.03;;;11.00;100.00
55755;BME280;41674;52.290;-1.474;2024-02-14T09:16:47;100355.72;;;11.13;100.00
55755;BME280;41674;52.290;-1.474;2024-02-14T09:19:19;100365.18;;;10.99;100.00
55755;BME280;41674;52.290;-1.474;2024-02-14T09:21:44;100359.26;;;11.25;100.00
55755;BME280;41674;52.290;-1.474;2024-02-14T09:24:14;100357.99;;;10.88;100.00
55755;BME280;41674;52.290;-1.474;2024-02-14T09:29:12;100350.13;;;12.05;100.00
55755;BME280;41674;52.290;-1.474;2024-02-14T09:34:19;100348.83;;;13.34;98.87
55755;BME280;41674;52.290;-1.474;2024-02-14T09:36:42;100345.12;;;13.06;99.53
55755;BME280;41674;52.290;-1.474;2024-02-14T09:39:17;100345.66;;;12.66;99.51
55755;BME280;41674;52.290;-1.474;2024-02-14T09:41:58;100350.61;;;12.16;100.00
55755;BME280;41674;52.290;-1.474;2024-02-14T09:44:20;100349.84;;;12.92;96.84
55755;BME280;41674;52.290;-1.474;2024-02-14T09:46:42;100351.11;;;11.67;100.00
55755;BME280;41674;52.290;-1.474;2024-02-14T09:49:25;100342.55;;;13.73;95.92
55755;BME280;41674;52.290;-1.474;2024-02-14T09:51:53;100342.65;;;12.87;98.90
55755;BME280;41674;52.290;-1.474;2024-02-14T09:54:15;100342.79;;;12.58;99.20
55755;BME280;41674;52.290;-1.474;2024-02-14T09:56:53;100342.49;;;12.91;99.58
55755;BME280;41674;52.290;-1.474;2024-02-14T09:59:20;100345.44;;;13.18;96.80
55755;BME280;41674;52.290;-1.474;2024-02-14T10:01:49;100346.41;;;12.20;100.00
55755;BME280;41674;52.290;-1.474;2024-02-14T10:04:21;100355.22;;;12.87;100.00
55755;BME280;41674;52.290;-1.474;2024-02-14T10:06:45;100364.56;;;11.78;100.00
55755;BME280;41674;52.290;-1.474;2024-02-14T10:09:19;100363.67;;;12.11;100.00
55755;BME280;41674;52.290;-1.474;2024-02-14T10:11:38;100365.81;;;11.45;100.00
55755;BME280;41674;52.290;-1.474;2024-02-14T10:14:08;100359.87;;;11.68;100.00
55755;BME280;41674;52.290;-1.474;2024-02-14T10:16:38;100362.82;;;12.70;100.00
55755;BME280;41674;52.290;-1.474;2024-02-14T10:19:16;100368.24;;;11.97;100.00
55755;BME280;41674;52.290;-1.474;2024-02-14T10:21:37;100366.50;;;11.49;100.00
55755;BME280;41674;52.290;-1.474;2024-02-14T10:24:12;100357.11;;;11.56;100.00
55755;BME280;41674;52.290;-1.474;2024-02-14T10:26:43;100359.98;;;10.77;100.00
55755;BME280;41674;52.290;-1.474;2024-02-14T10:29:06;100357.09;;;11.49;100.00
55755;BME280;41674;52.290;-1.474;2024-02-14T10:31:34;100365.50;;;12.34;100.00
55755;BME280;41674;52.290;-1.474;2024-02-14T10:34:10;100366.03;;;11.78;100.00
55755;BME280;41674;52.290;-1.474;2024-02-14T10:36:39;100366.11;;;12.04;100.00
55755;BME280;41674;52.290;-1.474;2024-02-14T10:39:11;100367.50;;;11.54;100.00
55755;BME280;41674;52.290;-1.474;2024-02-14T10:41:33;100373.01;;;11.22;100.00
55755;BME280;41674;52.290;-1.474;2024-02-14T10:44:03;100368.73;;;11.21;100.00
55755;BME280;41674;52.290;-1.474;2024-02-14T10:46:33;100380.29;;;11.13;100.00
55755;BME280;41674;52.290;-1.474;2024-02-14T10:49:04;100387.62;;;11.09;100.00
55755;BME280;41674;52.290;-1.474;2024-02-14T10:51:32;100387.97;;;11.19;100.00
55755;BME280;41674;52.290;-1.474;2024-02-14T10:54:03;100381.07;;;11.32;100.00
55755;BME280;41674;52.290;-1.474;2024-02-14T10:56:32;100372.39;;;11.60;100.00
55755;BME280;41674;52.290;-1.474;2024-02-14T10:59:01;100371.37;;;11.63;100.00
55755;BME280;41674;52.290;-1.474;2024-02-14T11:01:30;100383.49;;;12.22;100.00
55755;BME280;41674;52.290;-1.474;2024-02-14T11:04:00;100384.12;;;12.07;100.00
55755;BME280;41674;52.290;-1.474;2024-02-14T11:06:29;100388.59;;;11.82;100.00
55755;BME280;41674;52.290;-1.474;2024-02-14T11:09:02;100391.75;;;11.59;100.00
55755;BME280;41674;52.290;-1.474;2024-02-14T11:11:29;100389.66;;;11.56;100.00
55755;BME280;41674;52.290;-1.474;2024-02-14T11:13:57;100386.16;;;11.55;100.00
55755;BME280;41674;52.290;-1.474;2024-02-14T11:16:28;100378.43;;;11.88;100.00
55755;BME280;41674;52.290;-1.474;2024-02-14T11:19:06;100372.94;;;11.67;100.00
55755;BME280;41674;52.290;-1.474;2024-02-14T11:21:31;100357.47;;;11.17;100.00
55755;BME280;41674;52.290;-1.474;2024-02-14T11:23:55;100360.68;;;11.58;100.00
55755;BME280;41674;52.290;-1.474;2024-02-14T11:26:25;100365.74;;;12.04;100.00
55755;BME280;41674;52.290;-1.474;2024-02-14T11:29:00;100372.92;;;11.83;100.00
55755;BME280;41674;52.290;-1.474;2024-02-14T11:31:34;100373.44;;;12.43;100.00
55755;BME280;41674;52.290;-1.474;2024-02-14T11:33:53;100369.74;;;11.94;100.00
55755;BME280;41674;52.290;-1.474;2024-02-14T11:36:24;100374.33;;;12.11;100.00
55755;BME280;41674;52.290;-1.474;2024-02-14T11:38:52;100376.52;;;12.06;100.00
55755;BME280;41674;52.290;-1.474;2024-02-14T11:41:23;100379.54;;;12.64;100.00
55755;BME280;41674;52.290;-1.474;2024-02-14T11:44:01;100377.87;;;12.44;100.00
55755;BME280;41674;52.290;-1.474;2024-02-14T11:46:21;100379.81;;;12.18;100.00
55755;BME280;41674;52.290;-1.474;2024-02-14T11:48:56;100379.25;;;12.21;100.00
55755;BME280;41674;52.290;-1.474;2024-02-14T11:51:20;100379.19;;;12.41;100.00
55755;BME280;41674;52.290;-1.474;2024-02-14T11:53:51;100378.25;;;12.02;100.00
55755;BME280;41674;52.290;-1.474;2024-02-14T11:56:21;100375.75;;;12.10;100.00
55755;BME280;41674;52.290;-1.474;2024-02-14T11:58:50;100380.82;;;11.79;100.00
55755;BME280;41674;52.290;-1.474;2024-02-14T12:01:20;100385.57;;;11.99;100.00
55755;BME280;41674;52.290;-1.474;2024-02-14T12:03:48;100386.63;;;12.21;100.00
55755;BME280;41674;52.290;-1.474;2024-02-14T12:06:19;100376.97;;;11.97;100.00
55755;BME280;41674;52.290;-1.474;2024-02-14T12:08:48;100375.54;;;12.31;100.00
55755;BME280;41674;52.290;-1.474;2024-02-14T12:11:17;100380.96;;;12.37;100.00
55755;BME280;41674;52.290;-1.474;2024-02-14T12:13:49;100370.74;;;11.88;100.00
55755;BME280;41674;52.290;-1.474;2024-02-14T12:16:15;100373.37;;;11.81;100.00
55755;BME280;41674;52.290;-1.474;2024-02-14T12:18:45;100372.97;;;11.62;100.00
55755;BME280;41674;52.290;-1.474;2024-02-14T12:21:15;100370.46;;;12.15;100.00
55755;BME280;41674;52.290;-1.474;2024-02-14T12:23:49;100373.17;;;11.87;100.00
55755;BME280;41674;52.290;-1.474;2024-02-14T12:26:14;100372.44;;;12.19;100.00
55755;BME280;41674;52.290;-1.474;2024-02-14T12:28:49;100378.46;;;12.16;100.00
55755;BME280;41674;52.290;-1.474;2024-02-14T12:31:23;100386.11;;;13.13;100.00
55755;BME280;41674;52.290;-1.474;2024-02-14T12:33:45;100399.01;;;12.46;100.00
55755;BME280;41674;52.290;-1.474;2024-02-14T12:36:12;100402.73;;;12.54;100.00
55755;BME280;41674;52.290;-1.474;2024-02-14T12:38:41;100386.32;;;12.30;100.00
55755;BME280;41674;52.290;-1.474;2024-02-14T12:41:11;100390.67;;;12.17;100.00
55755;BME280;41674;52.290;-1.474;2024-02-14T12:43:40;100383.80;;;12.09;100.00
55755;BME280;41674;52.290;-1.474;2024-02-14T12:46:11;100383.64;;;12.37;100.00
55755;BME280;41674;52.290;-1.474;2024-02-14T12:48:41;100386.14;;;12.35;100.00
55755;BME280;41674;52.290;-1.474;2024-02-14T12:51:10;100394.67;;;12.22;100.00
55755;BME280;41674;52.290;-1.474;2024-02-14T12:53:47;100393.77;;;12.23;100.00
55755;BME280;41674;52.290;-1.474;2024-02-14T12:56:08;100396.51;;;12.55;100.00
55755;BME280;41674;52.290;-1.474;2024-02-14T12:58:38;100392.68;;;12.85;100.00
55755;BME280;41674;52.290;-1.474;2024-02-14T13:01:08;100392.15;;;12.56;100.00